sensor_id;sensor_type;location;lat;lon;timestamp;temperature;humidity
46730;DHT22;32476;50.002;11.854;2023-04-06T00:02:22;-2.10;99.90
46730;DHT22;32476;50.002;11.854;2023-04-06T00:04:48;-2.10;99.90
46730;DHT22;32476;50.002;11.854;2023-04-06T00:07:13;-2.20;99.90
46730;DHT22;32476;50.002;11.854;2023-04-06T00:09:41;-2.20;99.90
46730;DHT22;32476;50.002;11.854;2023-04-06T00:12:06;-2.20;99.90
46730;DHT22;32476;50.002;11.854;2023-04-06T00:14:32;-2.30;99.90
46730;DHT22;32476;50.002;11.854;2023-04-06T00:16:59;-2.30;99.90
46730;DHT22;32476;50.002;11.854;2023-04-06T00:19:25;-2.20;99.90
46730;DHT22;32476;50.002;11.854;2023-04-06T00:21:51;-2.20;99.90
46730;DHT22;32476;50.002;11.854;2023-04-06T00:24:19;-2.10;99.90
46730;DHT22;32476;50.002;11.854;2023-04-06T00:26:45;-2.10;99.90
46730;DHT22;32476;50.002;11.854;2023-04-06T00:29:10;-2.10;99.90
46730;DHT22;32476;50.002;11.854;2023-04-06T00:31:38;-2.10;99.90
46730;DHT22;32476;50.002;11.854;2023-04-06T00:34:03;-2.10;99.90
46730;DHT22;32476;50.002;11.854;2023-04-06T00:36:30;-2.10;99.90
46730;DHT22;32476;50.002;11.854;2023-04-06T00:38:57;-2.10;99.90
46730;DHT22;32476;50.002;11.854;2023-04-06T00:41:23;-2.00;99.90
46730;DHT22;32476;50.002;11.854;2023-04-06T00:43:49;-2.00;99.90
46730;DHT22;32476;50.002;11.854;2023-04-06T00:46:16;-2.00;99.90
46730;DHT22;32476;50.002;11.854;2023-04-06T00:48:42;-2.00;99.90
46730;DHT22;32476;50.002;11.854;2023-04-06T00:51:08;-2.00;99.90
46730;DHT22;32476;50.002;11.854;2023-04-06T00:53:35;-2.00;99.90
46730;DHT22;32476;50.002;11.854;2023-04-06T00:56:01;-2.00;99.90
46730;DHT22;32476;50.002;11.854;2023-04-06T00:58:26;-2.00;99.90
46730;DHT22;32476;50.002;11.854;2023-04-06T01:00:54;-2.00;99.90
46730;DHT22;32476;50.002;11.854;2023-04-06T01:03:20;-1.90;99.90
46730;DHT22;32476;50.002;11.854;2023-04-06T01:05:46;-1.90;99.90
46730;DHT22;32476;50.002;11.854;2023-04-06T01:08:13;-1.90;99.90
46730;DHT22;32476;50.002;11.854;2023-04-06T01:10:39;-1.90;99.90
46730;DHT22;32476;50.002;11.854;2023-04-06T01:13:04;-1.90;99.90
46730;DHT22;32476;50.002;11.854;2023-04-06T01:15:33;-1.90;99.90
46730;DHT22;32476;50.002;11.854;2023-04-06T01:18:00;-1.80;99.90
46730;DHT22;32476;50.002;11.854;2023-04-06T01:20:26;-1.80;99.90
46730;DHT22;32476;50.002;11.854;2023-04-06T01:22:53;-1.80;99.90
46730;DHT22;32476;50.002;11.854;2023-04-06T01:25:20;-1.70;99.90
46730;DHT22;32476;50.002;11.854;2023-04-06T01:27:45;-1.70;99.90
46730;DHT22;32476;50.002;11.854;2023-04-06T01:30:13;-1.80;99.90
46730;DHT22;32476;50.002;11.854;2023-04-06T01:32:39;-1.80;99.90
46730;DHT22;32476;50.002;11.854;2023-04-06T01:35:05;-1.80;99.90
46730;DHT22;32476;50.002;11.854;2023-04-06T01:37:32;-1.80;99.90
46730;DHT22;32476;50.002;11.854;2023-04-06T01:39:59;-1.80;99.90
46730;DHT22;32476;50.002;11.854;2023-04-06T01:42:25;-1.80;99.90
46730;DHT22;32476;50.002;11.854;2023-04-06T01:44:53;-1.70;99.90
46730;DHT22;32476;50.002;11.854;2023-04-06T01:47:18;-1.80;99.90
46730;DHT22;32476;50.002;11.854;2023-04-06T01:49:44;-1.80;99.90
46730;DHT22;32476;50.002;11.854;2023-04-06T01:52:12;-1.80;99.90
46730;DHT22;32476;50.002;11.854;2023-04-06T01:54:37;-1.70;99.90
46730;DHT22;32476;50.002;11.854;2023-04-06T01:57:03;-1.70;99.90
46730;DHT22;32476;50.002;11.854;2023-04-06T01:59:30;-1.70;99.90
46730;DHT22;32476;50.002;11.854;2023-04-06T02:01:56;-1.70;99.90
46730;DHT22;32476;50.002;11.854;2023-04-06T02:04:22;-1.70;99.90
46730;DHT22;32476;50.002;11.854;2023-04-06T02:06:49;-1.70;99.90
46730;DHT22;32476;50.002;11.854;2023-04-06T02:09:15;-1.70;99.90
46730;DHT22;32476;50.002;11.854;2023-04-06T02:11:41;-1.70;99.90
46730;DHT22;32476;50.002;11.854;2023-04-06T02:14:08;-1.70;99.90
46730;DHT22;32476;50.002;11.854;2023-04-06T02:16:34;-1.70;99.90
46730;DHT22;32476;50.002;11.854;2023-04-06T02:19:00;-1.70;99.90
46730;DHT22;32476;50.002;11.854;2023-04-06T02:21:27;-1.70;99.90
46730;DHT22;32476;50.002;11.854;2023-04-06T02:23:53;-1.60;99.90
46730;DHT22;32476;50.002;11.854;2023-04-06T02:26:19;-1.60;99.90
46730;DHT22;32476;50.002;11.854;2023-04-06T02:28:47;-1.60;99.90
46730;DHT22;32476;50.002;11.854;2023-04-06T02:31:13;-1.60;99.90
46730;DHT22;32476;50.002;11.854;2023-04-06T02:33:40;-1.60;99.90
46730;DHT22;32476;50.002;11.854;2023-04-06T02:36:08;-1.60;99.90
46730;DHT22;32476;50.002;11.854;2023-04-06T02:38:33;-1.60;99.90
46730;DHT22;32476;50.002;11.854;2023-04-06T02:40:59;-1.60;99.90
46730;DHT22;32476;50.002;11.854;2023-04-06T02:43:27;-1.60;99.90
46730;DHT22;32476;50.002;11.854;2023-04-06T02:45:53;-1.60;99.90
46730;DHT22;32476;50.002;11.854;2023-04-06T02:48:18;-1.70;99.90
46730;DHT22;32476;50.002;11.854;2023-04-06T02:50:46;-1.70;99.90
46730;DHT22;32476;50.002;11.854;2023-04-06T02:53:12;-1.70;99.90
46730;DHT22;32476;50.002;11.854;2023-04-06T02:55:37;-1.80;99.90
46730;DHT22;32476;50.002;11.854;2023-04-06T02:58:05;-1.80;99.90
46730;DHT22;32476;50.002;11.854;2023-04-06T03:00:30;-1.90;99.90
46730;DHT22;32476;50.002;11.854;2023-04-06T03:02:56;-1.90;99.90
46730;DHT22;32476;50.002;11.854;2023-04-06T03:05:24;-2.00;99.90
46730;DHT22;32476;50.002;11.854;2023-04-06T03:07:49;-2.00;99.90
46730;DHT22;32476;50.002;11.854;2023-04-06T03:10:15;-2.00;99.90
46730;DHT22;32476;50.002;11.854;2023-04-06T03:12:42;-2.10;99.90
46730;DHT22;32476;50.002;11.854;2023-04-06T03:15:09;-2.20;99.90
46730;DHT22;32476;50.002;11.854;2023-04-06T03:17:35;-2.20;99.90
46730;DHT22;32476;50.002;11.854;2023-04-06T03:20:03;-2.20;99.90
46730;DHT22;32476;50.002;11.854;2023-04-06T03:22:29;-2.20;99.90
46730;DHT22;32476;50.002;11.854;2023-04-06T03:24:55;-2.20;99.90
46730;DHT22;32476;50.002;11.854;2023-04-06T03:27:22;-2.20;99.90
46730;DHT22;32476;50.002;11.854;2023-04-06T03:29:48;-2.20;99.90
46730;DHT22;32476;50.002;11.854;2023-04-06T03:32:14;-2.20;99.90
46730;DHT22;32476;50.002;11.854;2023-04-06T03:34:41;-2.30;99.90
46730;DHT22;32476;50.002;11.854;2023-04-06T03:37:07;-2.20;99.90
46730;DHT22;32476;50.002;11.854;2023-04-06T03:39:33;-2.20;99.90
46730;DHT22;32476;50.002;11.854;2023-04-06T03:42:00;-2.20;99.90
46730;DHT22;32476;50.002;11.854;2023-04-06T03:44:26;-2.20;99.90
46730;DHT22;32476;50.002;11.854;2023-04-06T03:46:51;-2.20;99.90
46730;DHT22;32476;50.002;11.854;2023-04-06T03:49:19;-2.30;99.90
46730;DHT22;32476;50.002;11.854;2023-04-06T03:51:44;-2.30;99.90
46730;DHT22;32476;50.002;11.854;2023-04-06T03:54:10;-2.30;99.90
46730;DHT22;32476;50.002;11.854;2023-04-06T03:56:37;-2.30;99.90
46730;DHT22;32476;50.002;11.854;2023-04-06T03:59:03;-2.30;99.90
46730;DHT22;32476;50.002;11.854;2023-04-06T04:01:29;-2.40;99.90
46730;DHT22;32476;50.002;11.854;2023-04-06T04:03:57;-2.40;99.90
46730;DHT22;32476;50.002;11.854;2023-04-06T04:06:23;-2.40;99.90
46730;DHT22;32476;50.002;11.854;2023-04-06T04:08:49;-2.40;99.90
46730;DHT22;32476;50.002;11.854;2023-04-06T04:11:16;-2.50;99.90
46730;DHT22;32476;50.002;11.854;2023-04-06T04:13:42;-2.50;99.90
46730;DHT22;32476;50.002;11.854;2023-04-06T04:16:08;-2.50;99.90
46730;DHT22;32476;50.002;11.854;2023-04-06T04:18:35;-2.50;99.90
46730;DHT22;32476;50.002;11.854;2023-04-06T04:21:02;-2.60;99.90
46730;DHT22;32476;50.002;11.854;2023-04-06T04:23:28;-2.60;99.90
46730;DHT22;32476;50.002;11.854;2023-04-06T04:25:55;-2.60;99.90
46730;DHT22;32476;50.002;11.854;2023-04-06T04:28:21;-2.70;99.90
46730;DHT22;32476;50.002;11.854;2023-04-06T04:30:47;-2.80;99.90
46730;DHT22;32476;50.002;11.854;2023-04-06T04:33:14;-2.80;99.90
46730;DHT22;32476;50.002;11.854;2023-04-06T04:35:40;-2.80;99.90
46730;DHT22;32476;50.002;11.854;2023-04-06T04:38:06;-2.90;99.90
46730;DHT22;32476;50.002;11.854;2023-04-06T04:40:33;-2.90;99.90
46730;DHT22;32476;50.002;11.854;2023-04-06T04:42:59;-2.90;99.90
46730;DHT22;32476;50.002;11.854;2023-04-06T04:45:24;-2.90;99.90
46730;DHT22;32476;50.002;11.854;2023-04-06T04:47:52;-2.90;99.90
46730;DHT22;32476;50.002;11.854;2023-04-06T04:50:17;-2.90;99.90
46730;DHT22;32476;50.002;11.854;2023-04-06T04:52:43;-3.00;99.90
46730;DHT22;32476;50.002;11.854;2023-04-06T04:55:11;-3.00;99.90
46730;DHT22;32476;50.002;11.854;2023-04-06T04:57:37;-3.00;99.90
46730;DHT22;32476;50.002;11.854;2023-04-06T05:00:04;-3.00;99.90
46730;DHT22;32476;50.002;11.854;2023-04-06T05:02:32;-3.10;99.90
46730;DHT22;32476;50.002;11.854;2023-04-06T05:04:57;-3.10;99.90
46730;DHT22;32476;50.002;11.854;2023-04-06T05:07:23;-3.00;99.90
46730;DHT22;32476;50.002;11.854;2023-04-06T05:09:51;-3.00;99.90
46730;DHT22;32476;50.002;11.854;2023-04-06T05:12:18;-3.00;99.90
46730;DHT22;32476;50.002;11.854;2023-04-06T05:14:44;-3.00;99.90
46730;DHT22;32476;50.002;11.854;2023-04-06T05:17:11;-3.10;99.90
46730;DHT22;32476;50.002;11.854;2023-04-06T05:19:37;-3.10;99.90
46730;DHT22;32476;50.002;11.854;2023-04-06T05:22:03;-3.10;99.90
46730;DHT22;32476;50.002;11.854;2023-04-06T05:24:30;-3.20;99.90
46730;DHT22;32476;50.002;11.854;2023-04-06T05:26:56;-3.10;99.90
46730;DHT22;32476;50.002;11.854;2023-04-06T05:29:22;-3.10;99.90
46730;DHT22;32476;50.002;11.854;2023-04-06T05:31:50;-3.00;99.90
46730;DHT22;32476;50.002;11.854;2023-04-06T05:34:16;-2.90;99.90
46730;DHT22;32476;50.002;11.854;2023-04-06T05:36:42;-2.90;99.90
46730;DHT22;32476;50.002;11.854;2023-04-06T05:39:09;-2.80;99.90
46730;DHT22;32476;50.002;11.854;2023-04-06T05:41:35;-2.80;99.90
46730;DHT22;32476;50.002;11.854;2023-04-06T05:44:01;-2.70;99.90
46730;DHT22;32476;50.002;11.854;2023-04-06T05:46:28;-2.60;99.90
46730;DHT22;32476;50.002;11.854;2023-04-06T05:48:54;-2.50;99.90
46730;DHT22;32476;50.002;11.854;2023-04-06T05:51:20;-2.40;99.90
46730;DHT22;32476;50.002;11.854;2023-04-06T05:53:47;-2.30;99.90
46730;DHT22;32476;50.002;11.854;2023-04-06T05:56:13;-2.30;99.90
46730;DHT22;32476;50.002;11.854;2023-04-06T05:58:39;-2.30;99.90
46730;DHT22;32476;50.002;11.854;2023-04-06T06:01:06;-2.30;99.90
46730;DHT22;32476;50.002;11.854;2023-04-06T06:03:32;-2.10;99.90
46730;DHT22;32476;50.002;11.854;2023-04-06T06:06:01;-2.10;99.90
46730;DHT22;32476;50.002;11.854;2023-04-06T06:08:29;-2.00;99.90
46730;DHT22;32476;50.002;11.854;2023-04-06T06:10:56;-1.90;99.90
46730;DHT22;32476;50.002;11.854;2023-04-06T06:13:23;-1.70;99.90
46730;DHT22;32476;50.002;11.854;2023-04-06T06:15:50;-1.50;99.90
46730;DHT22;32476;50.002;11.854;2023-04-06T06:18:17;-1.20;99.90
46730;DHT22;32476;50.002;11.854;2023-04-06T06:20:42;-1.00;99.90
46730;DHT22;32476;50.002;11.854;2023-04-06T06:23:10;-0.70;99.90
46730;DHT22;32476;50.002;11.854;2023-04-06T06:25:36;-0.40;99.90
46730;DHT22;32476;50.002;11.854;2023-04-06T06:28:01;-0.20;99.90
46730;DHT22;32476;50.002;11.854;2023-04-06T06:30:29;0.10;99.90
46730;DHT22;32476;50.002;11.854;2023-04-06T06:32:55;0.30;99.90
46730;DHT22;32476;50.002;11.854;2023-04-06T06:35:21;0.50;99.90
46730;DHT22;32476;50.002;11.854;2023-04-06T06:37:48;0.60;99.90
46730;DHT22;32476;50.002;11.854;2023-04-06T06:40:14;0.90;99.90
46730;DHT22;32476;50.002;11.854;2023-04-06T06:42:41;1.10;99.90
46730;DHT22;32476;50.002;11.854;2023-04-06T06:45:09;1.20;99.90
46730;DHT22;32476;50.002;11.854;2023-04-06T06:47:35;1.30;99.90
46730;DHT22;32476;50.002;11.854;2023-04-06T06:50:01;1.50;99.90
46730;DHT22;32476;50.002;11.854;2023-04-06T06:52:30;1.70;99.90
46730;DHT22;32476;50.002;11.854;2023-04-06T06:54:55;1.70;99.90
46730;DHT22;32476;50.002;11.854;2023-04-06T06:57:22;2.00;99.90
46730;DHT22;32476;50.002;11.854;2023-04-06T06:59:49;2.10;99.90
46730;DHT22;32476;50.002;11.854;2023-04-06T07:02:15;2.40;99.90
46730;DHT22;32476;50.002;11.854;2023-04-06T07:04:41;2.30;99.90
46730;DHT22;32476;50.002;11.854;2023-04-06T07:07:08;2.50;99.90
46730;DHT22;32476;50.002;11.854;2023-04-06T07:09:35;2.70;99.90
46730;DHT22;32476;50.002;11.854;2023-04-06T07:12:01;2.90;99.90
46730;DHT22;32476;50.002;11.854;2023-04-06T07:14:29;2.90;99.90
46730;DHT22;32476;50.002;11.854;2023-04-06T07:16:55;3.10;99.90
46730;DHT22;32476;50.002;11.854;2023-04-06T07:19:20;3.30;99.50
46730;DHT22;32476;50.002;11.854;2023-04-06T07:21:48;3.40;99.60
46730;DHT22;32476;50.002;11.854;2023-04-06T07:24:15;3.60;99.90
46730;DHT22;32476;50.002;11.854;2023-04-06T07:26:42;3.70;98.20
46730;DHT22;32476;50.002;11.854;2023-04-06T07:29:10;3.90;97.90
46730;DHT22;32476;50.002;11.854;2023-04-06T07:31:36;3.90;97.30
46730;DHT22;32476;50.002;11.854;2023-04-06T07:34:02;3.80;95.40
46730;DHT22;32476;50.002;11.854;2023-04-06T07:36:29;4.10;96.80
46730;DHT22;32476;50.002;11.854;2023-04-06T07:38:55;4.20;94.70
46730;DHT22;32476;50.002;11.854;2023-04-06T07:41:20;4.00;94.10
46730;DHT22;32476;50.002;11.854;2023-04-06T07:43:48;4.20;93.90
46730;DHT22;32476;50.002;11.854;2023-04-06T07:46:14;4.20;94.00
46730;DHT22;32476;50.002;11.854;2023-04-06T07:48:40;4.20;92.20
46730;DHT22;32476;50.002;11.854;2023-04-06T07:51:07;4.40;91.90
46730;DHT22;32476;50.002;11.854;2023-04-06T07:53:34;4.60;92.20
46730;DHT22;32476;50.002;11.854;2023-04-06T07:56:00;4.70;90.30
46730;DHT22;32476;50.002;11.854;2023-04-06T07:58:27;4.80;90.10
46730;DHT22;32476;50.002;11.854;2023-04-06T08:00:53;5.00;88.90
46730;DHT22;32476;50.002;11.854;2023-04-06T08:03:20;4.80;86.20
46730;DHT22;32476;50.002;11.854;2023-04-06T08:06:02;5.10;87.30
46730;DHT22;32476;50.002;11.854;2023-04-06T08:08:28;5.00;84.70
46730;DHT22;32476;50.002;11.854;2023-04-06T08:10:54;5.10;85.40
46730;DHT22;32476;50.002;11.854;2023-04-06T08:13:21;5.20;84.80
46730;DHT22;32476;50.002;11.854;2023-04-06T08:15:47;5.40;84.80
46730;DHT22;32476;50.002;11.854;2023-04-06T08:18:13;5.20;84.20
46730;DHT22;32476;50.002;11.854;2023-04-06T08:20:40;5.30;81.70
46730;DHT22;32476;50.002;11.854;2023-04-06T08:23:06;5.30;82.00
46730;DHT22;32476;50.002;11.854;2023-04-06T08:25:36;5.40;78.90
46730;DHT22;32476;50.002;11.854;2023-04-06T08:28:03;5.60;80.00
46730;DHT22;32476;50.002;11.854;2023-04-06T08:30:30;5.50;80.40
46730;DHT22;32476;50.002;11.854;2023-04-06T08:32:55;5.60;81.20
46730;DHT22;32476;50.002;11.854;2023-04-06T08:35:23;5.90;79.10
46730;DHT22;32476;50.002;11.854;2023-04-06T08:37:48;6.10;79.40
46730;DHT22;32476;50.002;11.854;2023-04-06T08:40:15;6.10;79.30
46730;DHT22;32476;50.002;11.854;2023-04-06T08:42:49;6.20;76.50
46730;DHT22;32476;50.002;11.854;2023-04-06T08:45:17;6.30;77.40
46730;DHT22;32476;50.002;11.854;2023-04-06T08:47:51;6.60;78.60
46730;DHT22;32476;50.002;11.854;2023-04-06T08:50:18;6.50;77.10
46730;DHT22;32476;50.002;11.854;2023-04-06T08:52:46;6.40;75.90
46730;DHT22;32476;50.002;11.854;2023-04-06T08:55:15;6.50;75.70
46730;DHT22;32476;50.002;11.854;2023-04-06T08:57:42;6.60;74.20
46730;DHT22;32476;50.002;11.854;2023-04-06T09:00:10;6.60;73.50
46730;DHT22;32476;50.002;11.854;2023-04-06T09:02:43;6.70;75.10
46730;DHT22;32476;50.002;11.854;2023-04-06T09:05:09;7.20;75.00
46730;DHT22;32476;50.002;11.854;2023-04-06T09:07:37;7.20;74.50
46730;DHT22;32476;50.002;11.854;2023-04-06T09:10:05;7.30;72.10
46730;DHT22;32476;50.002;11.854;2023-04-06T09:12:32;7.20;71.80
46730;DHT22;32476;50.002;11.854;2023-04-06T09:15:02;7.50;73.80
46730;DHT22;32476;50.002;11.854;2023-04-06T09:17:29;7.70;74.40
46730;DHT22;32476;50.002;11.854;2023-04-06T09:19:56;7.90;75.50
46730;DHT22;32476;50.002;11.854;2023-04-06T09:22:24;8.00;70.50
46730;DHT22;32476;50.002;11.854;2023-04-06T09:24:55;7.40;71.70
46730;DHT22;32476;50.002;11.854;2023-04-06T09:27:33;7.80;73.00
46730;DHT22;32476;50.002;11.854;2023-04-06T09:30:13;7.40;71.80
46730;DHT22;32476;50.002;11.854;2023-04-06T09:32:51;7.80;73.10
46730;DHT22;32476;50.002;11.854;2023-04-06T09:35:19;7.90;71.30
46730;DHT22;32476;50.002;11.854;2023-04-06T09:37:47;8.10;72.60
46730;DHT22;32476;50.002;11.854;2023-04-06T09:40:14;8.10;69.20
46730;DHT22;32476;50.002;11.854;2023-04-06T09:42:42;8.00;68.90
46730;DHT22;32476;50.002;11.854;2023-04-06T09:45:08;8.30;66.50
46730;DHT22;32476;50.002;11.854;2023-04-06T09:47:36;8.70;67.20
46730;DHT22;32476;50.002;11.854;2023-04-06T09:50:11;8.40;65.70
46730;DHT22;32476;50.002;11.854;2023-04-06T09:52:40;8.20;66.20
46730;DHT22;32476;50.002;11.854;2023-04-06T09:55:08;8.50;69.20
46730;DHT22;32476;50.002;11.854;2023-04-06T09:57:57;9.00;66.60
46730;DHT22;32476;50.002;11.854;2023-04-06T10:00:25;8.70;68.20
46730;DHT22;32476;50.002;11.854;2023-04-06T10:04:08;8.70;68.70
46730;DHT22;32476;50.002;11.854;2023-04-06T10:06:09;9.30;68.00
46730;DHT22;32476;50.002;11.854;2023-04-06T10:12:51;9.60;63.80
46730;DHT22;32476;50.002;11.854;2023-04-06T10:15:17;9.50;66.10
46730;DHT22;32476;50.002;11.854;2023-04-06T10:21:11;9.60;64.40
46730;DHT22;32476;50.002;11.854;2023-04-06T10:23:45;9.20;58.80
46730;DHT22;32476;50.002;11.854;2023-04-06T10:26:16;9.00;58.20
46730;DHT22;32476;50.002;11.854;2023-04-06T10:28:45;9.60;62.30
46730;DHT22;32476;50.002;11.854;2023-04-06T10:31:13;10.00;60.50
46730;DHT22;32476;50.002;11.854;2023-04-06T10:33:39;10.10;61.80
46730;DHT22;32476;50.002;11.854;2023-04-06T10:36:25;10.30;63.80
46730;DHT22;32476;50.002;11.854;2023-04-06T10:38:58;10.30;61.10
46730;DHT22;32476;50.002;11.854;2023-04-06T10:41:32;10.40;59.60
46730;DHT22;32476;50.002;11.854;2023-04-06T10:44:00;10.20;60.10
46730;DHT22;32476;50.002;11.854;2023-04-06T10:46:31;10.70;60.50
46730;DHT22;32476;50.002;11.854;2023-04-06T10:48:57;10.30;59.30
46730;DHT22;32476;50.002;11.854;2023-04-06T10:51:27;9.40;59.90
46730;DHT22;32476;50.002;11.854;2023-04-06T10:53:54;9.50;57.70
46730;DHT22;32476;50.002;11.854;2023-04-06T10:56:24;9.20;57.20
46730;DHT22;32476;50.002;11.854;2023-04-06T10:58:55;9.10;54.40
46730;DHT22;32476;50.002;11.854;2023-04-06T11:01:24;9.40;58.30
46730;DHT22;32476;50.002;11.854;2023-04-06T11:03:57;9.00;60.20
46730;DHT22;32476;50.002;11.854;2023-04-06T11:06:27;9.20;60.10
46730;DHT22;32476;50.002;11.854;2023-04-06T11:08:57;9.20;59.30
46730;DHT22;32476;50.002;11.854;2023-04-06T11:11:24;9.80;61.20
46730;DHT22;32476;50.002;11.854;2023-04-06T11:18:58;9.90;59.50
46730;DHT22;32476;50.002;11.854;2023-04-06T11:24:13;9.90;58.10
46730;DHT22;32476;50.002;11.854;2023-04-06T11:26:58;9.00;57.20
46730;DHT22;32476;50.002;11.854;2023-04-06T11:29:30;9.20;59.60
46730;DHT22;32476;50.002;11.854;2023-04-06T11:32:00;9.80;58.30
46730;DHT22;32476;50.002;11.854;2023-04-06T11:34:29;9.70;57.90
46730;DHT22;32476;50.002;11.854;2023-04-06T11:37:00;9.00;57.00
46730;DHT22;32476;50.002;11.854;2023-04-06T11:39:29;9.10;62.40
46730;DHT22;32476;50.002;11.854;2023-04-06T11:41:59;9.40;57.50
46730;DHT22;32476;50.002;11.854;2023-04-06T11:44:40;10.10;60.30
46730;DHT22;32476;50.002;11.854;2023-04-06T11:47:10;10.00;52.60
46730;DHT22;32476;50.002;11.854;2023-04-06T11:49:40;10.50;57.40
46730;DHT22;32476;50.002;11.854;2023-04-06T11:52:20;10.60;55.50
46730;DHT22;32476;50.002;11.854;2023-04-06T11:54:49;9.30;54.40
46730;DHT22;32476;50.002;11.854;2023-04-06T11:57:16;9.20;56.50
46730;DHT22;32476;50.002;11.854;2023-04-06T11:59:43;8.80;55.50
46730;DHT22;32476;50.002;11.854;2023-04-06T12:02:10;9.90;56.50
46730;DHT22;32476;50.002;11.854;2023-04-06T12:04:36;9.10;55.00
46730;DHT22;32476;50.002;11.854;2023-04-06T12:07:03;8.60;56.40
46730;DHT22;32476;50.002;11.854;2023-04-06T12:09:31;8.40;55.80
46730;DHT22;32476;50.002;11.854;2023-04-06T12:11:57;7.90;57.10
46730;DHT22;32476;50.002;11.854;2023-04-06T12:14:23;7.50;57.00
46730;DHT22;32476;50.002;11.854;2023-04-06T12:16:51;8.00;59.00
46730;DHT22;32476;50.002;11.854;2023-04-06T12:19:17;8.60;63.80
46730;DHT22;32476;50.002;11.854;2023-04-06T12:21:42;9.20;57.30
46730;DHT22;32476;50.002;11.854;2023-04-06T12:24:10;8.90;56.20
46730;DHT22;32476;50.002;11.854;2023-04-06T12:26:36;9.20;56.40
46730;DHT22;32476;50.002;11.854;2023-04-06T12:29:03;10.10;58.30
46730;DHT22;32476;50.002;11.854;2023-04-06T12:31:37;10.10;53.60
46730;DHT22;32476;50.002;11.854;2023-04-06T12:34:04;10.60;56.50
46730;DHT22;32476;50.002;11.854;2023-04-06T12:36:30;10.90;55.40
46730;DHT22;32476;50.002;11.854;2023-04-06T12:38:58;10.80;54.20
46730;DHT22;32476;50.002;11.854;2023-04-06T12:41:24;10.90;52.40
46730;DHT22;32476;50.002;11.854;2023-04-06T12:43:50;10.70;54.20
46730;DHT22;32476;50.002;11.854;2023-04-06T12:46:17;11.00;56.30
46730;DHT22;32476;50.002;11.854;2023-04-06T12:48:43;11.00;55.00
46730;DHT22;32476;50.002;11.854;2023-04-06T12:51:09;11.40;54.70
46730;DHT22;32476;50.002;11.854;2023-04-06T12:53:37;11.70;55.00
46730;DHT22;32476;50.002;11.854;2023-04-06T12:56:09;11.30;56.40
46730;DHT22;32476;50.002;11.854;2023-04-06T12:58:38;10.60;52.00
46730;DHT22;32476;50.002;11.854;2023-04-06T13:01:06;10.40;52.80
46730;DHT22;32476;50.002;11.854;2023-04-06T13:03:33;11.30;56.90
46730;DHT22;32476;50.002;11.854;2023-04-06T13:06:01;11.80;54.20
46730;DHT22;32476;50.002;11.854;2023-04-06T13:08:27;11.60;53.70
46730;DHT22;32476;50.002;11.854;2023-04-06T13:10:54;11.90;53.90
46730;DHT22;32476;50.002;11.854;2023-04-06T13:13:28;12.00;54.20
46730;DHT22;32476;50.002;11.854;2023-04-06T13:15:59;12.50;58.60
46730;DHT22;32476;50.002;11.854;2023-04-06T13:18:27;13.10;54.00
46730;DHT22;32476;50.002;11.854;2023-04-06T13:20:52;12.80;51.80
46730;DHT22;32476;50.002;11.854;2023-04-06T13:23:20;13.10;51.90
46730;DHT22;32476;50.002;11.854;2023-04-06T13:25:48;12.40;51.90
46730;DHT22;32476;50.002;11.854;2023-04-06T13:28:14;12.40;52.80
46730;DHT22;32476;50.002;11.854;2023-04-06T13:30:39;12.70;54.70
46730;DHT22;32476;50.002;11.854;2023-04-06T13:33:07;12.60;50.80
46730;DHT22;32476;50.002;11.854;2023-04-06T13:35:33;13.20;53.20
46730;DHT22;32476;50.002;11.854;2023-04-06T13:38:01;13.30;50.70
46730;DHT22;32476;50.002;11.854;2023-04-06T13:40:28;13.30;51.50
46730;DHT22;32476;50.002;11.854;2023-04-06T13:42:54;13.80;54.70
46730;DHT22;32476;50.002;11.854;2023-04-06T13:45:20;14.00;51.80
46730;DHT22;32476;50.002;11.854;2023-04-06T13:47:47;13.40;50.90
46730;DHT22;32476;50.002;11.854;2023-04-06T13:50:13;13.20;49.80
46730;DHT22;32476;50.002;11.854;2023-04-06T13:52:39;13.50;53.10
46730;DHT22;32476;50.002;11.854;2023-04-06T13:55:06;13.70;49.90
46730;DHT22;32476;50.002;11.854;2023-04-06T13:57:32;13.50;48.80
46730;DHT22;32476;50.002;11.854;2023-04-06T13:59:58;13.20;48.60
46730;DHT22;32476;50.002;11.854;2023-04-06T14:02:25;13.20;51.50
46730;DHT22;32476;50.002;11.854;2023-04-06T14:04:53;12.50;50.00
46730;DHT22;32476;50.002;11.854;2023-04-06T14:07:20;12.90;51.90
46730;DHT22;32476;50.002;11.854;2023-04-06T14:09:48;13.30;53.20
46730;DHT22;32476;50.002;11.854;2023-04-06T14:12:14;13.10;51.00
46730;DHT22;32476;50.002;11.854;2023-04-06T14:14:40;12.70;52.10
46730;DHT22;32476;50.002;11.854;2023-04-06T14:17:07;12.40;54.40
46730;DHT22;32476;50.002;11.854;2023-04-06T14:19:33;12.40;52.90
46730;DHT22;32476;50.002;11.854;2023-04-06T14:21:59;12.60;52.90
46730;DHT22;32476;50.002;11.854;2023-04-06T14:24:27;13.10;51.10
46730;DHT22;32476;50.002;11.854;2023-04-06T14:26:53;13.10;51.60
46730;DHT22;32476;50.002;11.854;2023-04-06T14:29:19;12.70;52.00
46730;DHT22;32476;50.002;11.854;2023-04-06T14:31:47;12.40;52.00
46730;DHT22;32476;50.002;11.854;2023-04-06T14:34:14;11.00;49.70
46730;DHT22;32476;50.002;11.854;2023-04-06T14:36:42;10.60;55.00
46730;DHT22;32476;50.002;11.854;2023-04-06T14:39:09;10.90;55.80
46730;DHT22;32476;50.002;11.854;2023-04-06T14:41:35;11.30;52.10
46730;DHT22;32476;50.002;11.854;2023-04-06T14:44:01;11.70;50.80
46730;DHT22;32476;50.002;11.854;2023-04-06T14:46:29;11.60;51.10
46730;DHT22;32476;50.002;11.854;2023-04-06T14:48:56;11.70;51.70
46730;DHT22;32476;50.002;11.854;2023-04-06T14:51:26;12.00;51.10
46730;DHT22;32476;50.002;11.854;2023-04-06T14:53:56;13.00;55.10
46730;DHT22;32476;50.002;11.854;2023-04-06T14:56:23;12.80;47.10
46730;DHT22;32476;50.002;11.854;2023-04-06T14:58:49;11.50;49.50
46730;DHT22;32476;50.002;11.854;2023-04-06T15:01:21;11.90;51.90
46730;DHT22;32476;50.002;11.854;2023-04-06T15:03:46;11.20;48.60
46730;DHT22;32476;50.002;11.854;2023-04-06T15:06:13;12.20;51.40
46730;DHT22;32476;50.002;11.854;2023-04-06T15:08:44;12.20;48.90
46730;DHT22;32476;50.002;11.854;2023-04-06T15:11:11;12.00;47.70
46730;DHT22;32476;50.002;11.854;2023-04-06T15:13:38;12.40;50.30
46730;DHT22;32476;50.002;11.854;2023-04-06T15:16:06;12.60;52.30
46730;DHT22;32476;50.002;11.854;2023-04-06T15:18:32;12.40;50.10
46730;DHT22;32476;50.002;11.854;2023-04-06T15:20:58;12.60;50.40
46730;DHT22;32476;50.002;11.854;2023-04-06T15:23:26;12.70;44.70
46730;DHT22;32476;50.002;11.854;2023-04-06T15:25:55;12.80;47.40
46730;DHT22;32476;50.002;11.854;2023-04-06T15:28:21;13.10;49.60
46730;DHT22;32476;50.002;11.854;2023-04-06T15:30:49;13.00;48.60
46730;DHT22;32476;50.002;11.854;2023-04-06T15:33:14;13.20;48.20
46730;DHT22;32476;50.002;11.854;2023-04-06T15:35:40;13.00;47.10
46730;DHT22;32476;50.002;11.854;2023-04-06T15:38:09;13.10;52.30